Time;durP1;ratioP1;P1;durP2;ratioP2;P2;SDS_P1;SDS_P2;PMS_P1;PMS_P2;Temp;Humidity;BMP_temperature;BMP_pressure;BME280_temperature;BME280_humidity;BME280_pressure;Samples;Min_cycle;Max_cycle;Signal;HPM_P1;HPM_P2
2024/02/24 06:42:51;;;;;;;0.57;0.52;;;;;;;;;;10589736;27;20375;-86
2024/02/24 06:47:52;;;;;;;0.35;0.22;;;;;;;;;;10589661;28;20035;-85
2024/02/24 06:52:54;;;;;;;1.13;0.50;;;;;;;;;;10587717;28;20080;-85
2024/02/24 06:57:55;;;;;;;0.60;0.30;;;;;;;;;;10588887;28;20023;-85
2024/02/24 07:02:56;;;;;;;0.68;0.32;;;;;;;;;;10588425;28;20095;-85
2024/02/24 07:07:57;;;;;;;1.50;0.45;;;;;;;;;;10582412;28;20024;-85
2024/02/24 07:12:58;;;;;;;1.00;0.40;;;;;;;;;;10580519;28;20039;-85
2024/02/24 07:17:59;;;;;;;1.10;0.50;;;;;;;;;;10585759;28;20103;-84
2024/02/24 07:23:00;;;;;;;0.47;0.30;;;;;;;;;;10598300;28;20020;-84
2024/02/24 07:28:01;;;;;;;1.27;0.70;;;;;;;;;;10585608;28;20504;-86
2024/02/24 07:38:26;;;;;;;0.82;0.40;;;;;;;;;;10551678;28;19908;-84
2024/02/24 07:43:44;;;;;;;2.30;0.73;;;;;;;;;;10546443;28;20028;-84
2024/02/24 07:48:50;;;;;;;0.77;0.43;;;;;;;;;;10547392;28;20078;-85
2024/02/24 07:53:52;;;;;;;2.40;0.70;;;;;;;;;;10523456;28;20166;-84
2024/02/24 07:58:53;;;;;;;0.90;0.40;;;;;;;;;;10518378;28;20035;-85
2024/02/24 08:03:55;;;;;;;;;;;;;;;;;;10508612;28;20032;-85
2024/02/24 08:08:56;;;;;;;0.50;0.40;;;;;;;;;;10513102;28;19908;-84
2024/02/24 08:13:57;;;;;;;;;;;;;;;;;;10510852;28;20119;-84
2024/02/24 08:18:58;;;;;;;1.30;0.70;;;;;;;;;;10514352;28;20360;-84
2024/02/24 08:24:05;;;;;;;1.48;0.43;;;;;;;;;;10516171;28;20033;-84
2024/02/24 08:29:08;;;;;;;1.17;0.80;;;;;;;;;;10516396;28;20016;-84
2024/02/24 08:34:10;;;;;;;1.73;0.98;;;;;;;;;;10530686;28;20032;-84
2024/02/24 08:39:11;;;;;;;2.53;0.90;;;;;;;;;;10518623;28;20021;-84
2024/02/24 08:44:12;;;;;;;;;;;;;;;;;;10518140;28;20091;-84
2024/02/24 08:49:13;;;;;;;1.67;0.93;;;;;;;;;;10516633;28;19912;-85
2024/02/24 08:54:20;;;;;;;;;;;;;;;;;;10515030;28;20112;-83
2024/02/24 08:59:21;;;;;;;2.30;1.00;;;;;;;;;;10514630;28;19904;-84
2024/02/24 09:04:22;;;;;;;0.98;0.50;;;;;;;;;;10513845;28;20044;-85
2024/02/24 09:09:23;;;;;;;3.75;1.90;;;;;;;;;;10514752;28;20508;-85
2024/02/24 09:14:24;;;;;;;;;;;;;;;;;;10514007;28;20033;-85
2024/02/24 09:19:26;;;;;;;2.72;0.90;;;;;;;;;;10509622;28;20334;-85
2024/02/24 09:24:27;;;;;;;4.13;0.77;;;;;;;;;;10512517;28;20422;-85
2024/02/24 09:29:28;;;;;;;1.25;0.70;;;;;;;;;;10510227;28;20016;-83
2024/02/24 09:34:29;;;;;;;1.60;0.80;;;;;;;;;;10509800;28;20039;-83
2024/02/24 09:39:30;;;;;;;3.13;1.95;;;;;;;;;;10512518;28;20178;-83
2024/02/24 09:44:31;;;;;;;1.08;0.80;;;;;;;;;;10522178;28;20025;-83
2024/02/24 09:49:32;;;;;;;2.75;1.02;;;;;;;;;;10527438;28;20388;-84
2024/02/24 09:54:33;;;;;;;2.00;0.90;;;;;;;;;;10525988;28;20039;-84
2024/02/24 09:59:35;;;;;;;1.95;0.80;;;;;;;;;;10516435;28;20044;-84
2024/02/24 10:04:36;;;;;;;2.22;0.70;;;;;;;;;;10516385;28;20086;-84
2024/02/24 10:09:37;;;;;;;2.20;0.80;;;;;;;;;;10512374;28;20151;-84
2024/02/24 10:14:38;;;;;;;;;;;;;;;;;;10512317;28;20063;-84
2024/02/24 10:19:39;;;;;;;1.98;0.90;;;;;;;;;;10510703;28;19910;-83
2024/02/24 10:24:41;;;;;;;1.50;1.00;;;;;;;;;;10511399;28;20030;-83
2024/02/24 10:29:42;;;;;;;1.58;0.80;;;;;;;;;;10508345;28;20096;-83
2024/02/24 10:34:43;;;;;;;;;;;;;;;;;;10508260;28;20417;-83
2024/02/24 10:39:45;;;;;;;1.60;0.80;;;;;;;;;;10508451;28;20326;-83
2024/02/24 10:44:46;;;;;;;1.67;1.27;;;;;;;;;;10508515;28;20128;-84
2024/02/24 10:49:47;;;;;;;1.17;0.85;;;;;;;;;;10503544;28;20092;-82
2024/02/24 10:54:49;;;;;;;1.35;0.85;;;;;;;;;;10509795;28;20078;-82
2024/02/24 10:59:50;;;;;;;2.95;1.00;;;;;;;;;;10512041;28;20033;-83
2024/02/24 11:04:52;;;;;;;2.67;1.10;;;;;;;;;;10509891;28;20123;-83
2024/02/24 11:09:53;;;;;;;1.23;0.93;;;;;;;;;;10505632;28;20489;-82
2024/02/24 11:14:55;;;;;;;1.75;1.02;;;;;;;;;;10506256;28;20028;-82
2024/02/24 11:19:56;;;;;;;4.07;1.05;;;;;;;;;;10506456;28;20043;-82
2024/02/24 11:25:00;;;;;;;1.48;1.05;;;;;;;;;;10507911;28;20080;-82
2024/02/24 11:30:20;;;;;;;3.40;1.30;;;;;;;;;;10515524;28;20077;-82
2024/02/24 11:35:21;;;;;;;0.90;0.75;;;;;;;;;;10511440;28;20024;-83
2024/02/24 11:40:23;;;;;;;3.05;1.90;;;;;;;;;;10512113;28;20073;-83
2024/02/24 11:45:24;;;;;;;2.63;1.10;;;;;;;;;;10510455;28;20025;-82
2024/02/24 11:50:25;;;;;;;;;;;;;;;;;;10511210;28;20054;-83
2024/02/24 11:55:26;;;;;;;1.13;0.70;;;;;;;;;;10511585;28;19949;-84
2024/02/24 12:00:27;;;;;;;;;;;;;;;;;;10513873;28;20048;-82
2024/02/24 12:05:28;;;;;;;1.95;0.80;;;;;;;;;;10511472;28;19905;-82
2024/02/24 12:10:33;;;;;;;;;;;;;;;;;;10516349;28;20040;-82
2024/02/24 12:15:35;;;;;;;1.35;0.82;;;;;;;;;;10523805;28;19915;-82
2024/02/24 12:20:40;;;;;;;1.80;0.90;;;;;;;;;;10519700;28;20025;-83
2024/02/24 12:25:41;;;;;;;2.80;1.02;;;;;;;;;;10515792;28;20024;-82
2024/02/24 12:30:46;;;;;;;1.52;0.90;;;;;;;;;;10513816;28;20056;-83
2024/02/24 12:35:48;;;;;;;1.65;0.75;;;;;;;;;;10513577;28;20406;-83
2024/02/24 12:40:49;;;;;;;2.08;1.00;;;;;;;;;;10528242;28;20040;-82
2024/02/24 12:45:51;;;;;;;;;;;;;;;;;;10519757;28;20086;-82
2024/02/24 12:50:52;;;;;;;1.83;0.80;;;;;;;;;;10506847;28;19909;-82
2024/02/24 12:55:55;;;;;;;1.25;0.80;;;;;;;;;;10505280;28;20505;-82
2024/02/24 13:00:56;;;;;;;2.35;0.70;;;;;;;;;;10507923;28;20021;-83
2024/02/24 13:05:57;;;;;;;2.13;1.08;;;;;;;;;;10507879;28;20035;-82
2024/02/24 13:10:59;;;;;;;;;;;;;;;;;;10502718;28;20538;-85
2024/02/24 13:16:00;;;;;;;;;;;;;;;;;;10501516;28;19908;-85
2024/02/24 13:21:01;;;;;;;2.00;0.90;;;;;;;;;;10502460;28;19905;-86
2024/02/24 13:26:02;;;;;;;2.35;0.82;;;;;;;;;;10500454;28;20056;-85
2024/02/24 13:31:04;;;;;;;1.25;0.70;;;;;;;;;;10501773;28;20464;-85
2024/02/24 13:36:05;;;;;;;1.13;0.60;;;;;;;;;;10524358;22;20064;-78
2024/02/24 13:41:06;;;;;;;1.35;0.73;;;;;;;;;;10461850;28;20507;-79
2024/02/24 13:46:08;;;;;;;2.10;0.80;;;;;;;;;;10462475;28;20032;-79
2024/02/24 13:51:09;;;;;;;1.50;0.70;;;;;;;;;;10459589;28;20029;-79
2024/02/24 13:56:10;;;;;;;;;;;;;;;;;;10462556;28;20399;-79
2024/02/24 14:01:11;;;;;;;1.73;0.50;;;;;;;;;;10463364;28;19904;-81
2024/02/24 14:06:13;;;;;;;1.50;0.60;;;;;;;;;;10466080;28;20032;-81
2024/02/24 14:11:14;;;;;;;1.27;0.63;;;;;;;;;;10467997;28;20029;-81
2024/02/24 14:16:15;;;;;;;2.58;0.88;;;;;;;;;;10474835;28;20021;-79
2024/02/24 14:21:16;;;;;;;1.98;0.90;;;;;;;;;;10476800;28;20119;-79
2024/02/24 14:26:17;;;;;;;2.97;1.60;;;;;;;;;;10463559;28;20499;-80
2024/02/24 14:31:19;;;;;;;1.42;0.70;;;;;;;;;;10461858;28;20032;-80
2024/02/24 14:36:20;;;;;;;2.00;1.00;;;;;;;;;;10462520;28;20032;-79
2024/02/24 14:41:21;;;;;;;1.33;0.50;;;;;;;;;;10463109;28;20481;-79
2024/02/24 14:46:22;;;;;;;1.02;0.73;;;;;;;;;;10468364;28;20465;-82
2024/02/24 14:51:24;;;;;;;2.33;0.63;;;;;;;;;;10472293;28;20029;-82
2024/02/24 14:56:25;;;;;;;4.10;2.50;;;;;;;;;;10469450;28;20100;-82
2024/02/24 15:01:25;;;;;;;;;;;;;;;;;;10474806;28;20029;-82
2024/02/24 15:06:27;;;;;;;2.20;1.30;;;;;;;;;;10478114;28;19904;-82
2024/02/24 15:11:28;;;;;;;;;;;;;;;;;;10479648;28;20065;-82
2024/02/24 15:16:29;;;;;;;1.98;0.70;;;;;;;;;;10481984;28;19904;-82
2024/02/24 15:21:30;;;;;;;;;;;;;;;;;;10482803;28;20497;-82
2024/02/24 15:26:33;;;;;;;1.20;0.70;;;;;;;;;;10507371;28;19909;-81
2024/02/24 15:31:35;;;;;;;2.25;1.20;;;;;;;;;;10499329;28;20510;-83
2024/02/24 15:36:36;;;;;;;2.50;0.90;;;;;;;;;;10507679;28;20041;-82
2024/02/24 15:41:37;;;;;;;;;;;;;;;;;;10484884;28;20435;-82
2024/02/24 15:46:38;;;;;;;1.40;0.50;;;;;;;;;;10468637;28;19908;-81
2024/02/24 15:51:39;;;;;;;4.25;1.20;;;;;;;;;;10471440;28;20429;-82
2024/02/24 15:56:40;;;;;;;;;;;;;;;;;;10471151;28;20473;-81
2024/02/24 16:01:41;;;;;;;1.25;0.52;;;;;;;;;;10471554;28;19912;-82
2024/02/24 16:06:42;;;;;;;1.40;0.70;;;;;;;;;;10473891;28;20532;-82
2024/02/24 16:11:43;;;;;;;;;;;;;;;;;;10476109;28;20033;-82
2024/02/24 16:16:44;;;;;;;2.53;1.00;;;;;;;;;;10477454;28;19919;-82
2024/02/24 16:21:45;;;;;;;1.63;1.08;;;;;;;;;;10478661;28;20445;-82
2024/02/24 16:26:46;;;;;;;;;;;;;;;;;;10477890;28;20473;-82
2024/02/24 16:31:47;;;;;;;2.83;1.10;;;;;;;;;;10479316;28;19909;-83
2024/02/24 16:36:48;;;;;;;2.03;1.00;;;;;;;;;;10491827;28;20499;-83
2024/02/24 16:41:49;;;;;;;1.60;0.80;;;;;;;;;;10505592;28;20025;-82
2024/02/24 16:46:50;;;;;;;1.33;0.80;;;;;;;;;;10495003;28;20040;-82
2024/02/24 16:51:52;;;;;;;2.03;1.20;;;;;;;;;;10476219;28;20033;-82
2024/02/24 16:56:53;;;;;;;3.97;1.40;;;;;;;;;;10473686;28;20025;-82
2024/02/24 17:01:54;;;;;;;1.08;0.70;;;;;;;;;;10476935;28;20409;-82
2024/02/24 17:06:56;;;;;;;1.33;0.63;;;;;;;;;;10477041;28;20025;-83
2024/02/24 17:11:57;;;;;;;2.72;1.05;;;;;;;;;;10476779;28;20040;-83
2024/02/24 17:16:58;;;;;;;;;;;;;;;;;;10475404;28;20047;-82
2024/02/24 17:21:59;;;;;;;2.22;1.10;;;;;;;;;;10473541;28;19931;-82
2024/02/24 17:27:00;;;;;;;;;;;;;;;;;;10476801;28;20120;-83
2024/02/24 17:32:01;;;;;;;2.13;1.20;;;;;;;;;;10474433;28;20034;-83
2024/02/24 17:37:02;;;;;;;2.28;1.35;;;;;;;;;;10474985;28;20073;-83
2024/02/24 17:42:05;;;;;;;;;;;;;;;;;;10476728;28;20025;-82
2024/02/24 17:47:06;;;;;;;3.35;1.30;;;;;;;;;;10478285;28;19909;-82
2024/02/24 17:52:07;;;;;;;2.22;1.40;;;;;;;;;;10475036;28;20080;-82
2024/02/24 17:57:07;;;;;;;;;;;;;;;;;;10471150;28;20123;-82
2024/02/24 18:02:09;;;;;;;1.70;1.00;;;;;;;;;;10470305;28;20275;-82
2024/02/24 18:07:09;;;;;;;;;;;;;;;;;;10473267;28;20124;-82
2024/02/24 18:12:10;;;;;;;1.58;0.90;;;;;;;;;;10474908;28;19909;-81
2024/02/24 18:17:11;;;;;;;;;;;;;;;;;;10472095;28;20055;-82
2024/02/24 18:22:12;;;;;;;2.28;1.30;;;;;;;;;;10471475;28;20421;-82
2024/02/24 18:27:14;;;;;;;;;;;;;;;;;;10501465;28;20017;-82
2024/02/24 18:32:15;;;;;;;2.40;1.10;;;;;;;;;;10477556;28;19919;-82
2024/02/24 18:37:16;;;;;;;;;;;;;;;;;;10475714;28;20107;-82
2024/02/24 18:42:20;;;;;;;3.65;1.83;;;;;;;;;;10474346;28;19905;-82
2024/02/24 18:47:21;;;;;;;1.60;1.05;;;;;;;;;;10475349;28;20123;-83
2024/02/24 18:52:22;;;;;;;1.63;1.00;;;;;;;;;;10489953;28;20037;-81
2024/02/24 18:57:23;;;;;;;2.25;1.27;;;;;;;;;;10492003;28;20029;-82
2024/02/24 19:02:26;;;;;;;;;;;;;;;;;;10476966;28;20496;-82
2024/02/24 19:07:27;;;;;;;2.50;1.30;;;;;;;;;;10504617;28;19948;-79
2024/02/24 19:12:28;;;;;;;;;;;;;;;;;;10474844;28;20552;-82
2024/02/24 19:17:31;;;;;;;3.00;1.73;;;;;;;;;;10465244;28;19904;-81
2024/02/24 19:22:32;;;;;;;2.15;1.10;;;;;;;;;;10467588;28;20033;-82
2024/02/24 19:27:33;;;;;;;;;;;;;;;;;;10466211;28;20032;-81
2024/02/24 19:38:19;;;;;;;2.53;1.65;;;;;;;;;;10522546;28;20096;-84
2024/02/24 19:43:26;;;;;;;4.05;2.30;;;;;;;;;;10547372;28;20088;-83
2024/02/24 19:48:27;;;;;;;3.35;2.17;;;;;;;;;;10497943;28;20029;-84
2024/02/24 19:53:55;;;;;;;1.80;1.20;;;;;;;;;;10517371;28;20033;-85
2024/02/24 20:04:41;;;;;;;1.75;1.15;;;;;;;;;;10512875;28;20074;-85
